METAR AND TAF INFORMATION
METAR FOR KABQ
KABQ 130752Z 20010KT 10SM FEW100 FEW130 16/M07 A3013 RMK AO2 SLP132 HZ ALQDS T01561072
KABQ 130652Z 20005KT 10SM FEW100 SCT130 16/M07 A3011 RMK AO2 SLP129 HZ ALQDS T01561067 402720072
KABQ 130552Z 19011KT 10SM FEW130 17/M08 A3010 RMK AO2 PK WND 17027/0501 SLP123 T01721078 10256 20172 51017
KABQ 130540Z 1306/1406 18011KT P6SM SCT150
TEMPO 1306/1308 18011G21KT
FM131000 VRB06KT P6SM SCT150
FM131800 23011KT P6SM SKC
FM140000 18008KT P6SM SKC

 AIRPORT MAP

 RUNWAY INFORMATION
Runway 03 Runway length 10000 ft Runway width 150 ft
Runway elevation 5305 ft Runway displaced threshold 0 ft Runway heading 45
Runway 21 Runway length 10000 ft Runway width 150 ft
Runway elevation 5316 ft Runway displaced threshold 0 ft Runway heading 225
Runway 08 Runway length 13793 ft Runway width 150 ft
Runway elevation 5315 ft Runway displaced threshold 0 ft Runway heading 90
Runway 26 Runway length 13793 ft Runway width 150 ft
Runway elevation 5355 ft Runway displaced threshold 0 ft Runway heading 270
Runway 12 Runway length 6000 ft Runway width 150 ft
Runway elevation 5312 ft Runway displaced threshold 0 ft Runway heading 129
Runway 30 Runway length 6000 ft Runway width 150 ft
Runway elevation 5314 ft Runway displaced threshold 0 ft Runway heading 309
Runway 17 Runway length 10000 ft Runway width 150 ft
Runway elevation 5321 ft Runway displaced threshold 0 ft Runway heading 183
Runway 35 Runway length 10000 ft Runway width 150 ft
Runway elevation 5314 ft Runway displaced threshold 0 ft Runway heading 3

 AIRPORT FREQUENCIES

 AIRPORT NEAR NAVIGATION AIDS

-